sensor_id;sensor_type;location;lat;lon;timestamp;temperature;humidity
60868;DHT22;46702;48.370;10.794;2023-01-01T00:01:14;7.70;99.90
60868;DHT22;46702;48.370;10.794;2023-01-01T00:03:40;7.70;99.90
60868;DHT22;46702;48.370;10.794;2023-01-01T00:06:11;7.50;99.90
60868;DHT22;46702;48.370;10.794;2023-01-01T00:08:38;7.20;99.90
60868;DHT22;46702;48.370;10.794;2023-01-01T00:11:05;7.20;99.90
60868;DHT22;46702;48.370;10.794;2023-01-01T00:13:31;7.30;99.90
60868;DHT22;46702;48.370;10.794;2023-01-01T00:18:33;7.20;99.90
60868;DHT22;46702;48.370;10.794;2023-01-01T00:21:07;7.20;99.90
60868;DHT22;46702;48.370;10.794;2023-01-01T00:23:34;7.20;99.90
60868;DHT22;46702;48.370;10.794;2023-01-01T00:26:00;7.00;99.90
60868;DHT22;46702;48.370;10.794;2023-01-01T00:28:26;7.00;99.90
60868;DHT22;46702;48.370;10.794;2023-01-01T00:30:52;7.00;99.90
60868;DHT22;46702;48.370;10.794;2023-01-01T00:33:18;7.00;99.90
60868;DHT22;46702;48.370;10.794;2023-01-01T00:35:44;7.00;99.90
60868;DHT22;46702;48.370;10.794;2023-01-01T00:38:09;7.00;99.90
60868;DHT22;46702;48.370;10.794;2023-01-01T00:40:35;7.10;99.90
60868;DHT22;46702;48.370;10.794;2023-01-01T00:43:01;7.20;99.90
60868;DHT22;46702;48.370;10.794;2023-01-01T00:45:26;7.30;99.90
60868;DHT22;46702;48.370;10.794;2023-01-01T00:47:52;7.30;99.90
60868;DHT22;46702;48.370;10.794;2023-01-01T00:50:20;7.30;99.90
60868;DHT22;46702;48.370;10.794;2023-01-01T00:52:46;7.40;99.90
60868;DHT22;46702;48.370;10.794;2023-01-01T00:55:13;7.30;99.90
60868;DHT22;46702;48.370;10.794;2023-01-01T00:57:39;7.30;99.90
60868;DHT22;46702;48.370;10.794;2023-01-01T01:00:06;7.30;99.90
60868;DHT22;46702;48.370;10.794;2023-01-01T01:02:31;7.20;99.90
60868;DHT22;46702;48.370;10.794;2023-01-01T01:04:57;7.10;99.90
60868;DHT22;46702;48.370;10.794;2023-01-01T01:07:23;7.00;99.90
60868;DHT22;46702;48.370;10.794;2023-01-01T01:09:48;6.80;99.90
60868;DHT22;46702;48.370;10.794;2023-01-01T01:12:14;6.50;99.90
60868;DHT22;46702;48.370;10.794;2023-01-01T01:14:39;6.60;99.90
60868;DHT22;46702;48.370;10.794;2023-01-01T01:17:05;6.60;99.90
60868;DHT22;46702;48.370;10.794;2023-01-01T01:19:31;6.70;99.90
60868;DHT22;46702;48.370;10.794;2023-01-01T01:21:56;6.80;99.90
60868;DHT22;46702;48.370;10.794;2023-01-01T01:24:22;6.80;99.90
60868;DHT22;46702;48.370;10.794;2023-01-01T01:26:47;6.80;99.90
60868;DHT22;46702;48.370;10.794;2023-01-01T01:29:13;6.90;99.90
60868;DHT22;46702;48.370;10.794;2023-01-01T01:31:39;6.90;99.90
60868;DHT22;46702;48.370;10.794;2023-01-01T01:34:04;6.90;99.90
60868;DHT22;46702;48.370;10.794;2023-01-01T01:36:30;6.90;99.90
60868;DHT22;46702;48.370;10.794;2023-01-01T01:38:56;7.00;99.90
60868;DHT22;46702;48.370;10.794;2023-01-01T01:41:24;7.00;99.90
60868;DHT22;46702;48.370;10.794;2023-01-01T01:44:02;7.10;99.90
60868;DHT22;46702;48.370;10.794;2023-01-01T01:46:32;7.20;99.90
60868;DHT22;46702;48.370;10.794;2023-01-01T01:49:04;7.20;99.90
60868;DHT22;46702;48.370;10.794;2023-01-01T01:51:36;7.20;99.90
60868;DHT22;46702;48.370;10.794;2023-01-01T01:54:08;7.20;99.90
60868;DHT22;46702;48.370;10.794;2023-01-01T01:56:57;7.20;99.90
60868;DHT22;46702;48.370;10.794;2023-01-01T01:59:26;7.20;99.90
60868;DHT22;46702;48.370;10.794;2023-01-01T02:01:54;7.10;99.90
60868;DHT22;46702;48.370;10.794;2023-01-01T02:04:20;7.10;99.90
60868;DHT22;46702;48.370;10.794;2023-01-01T02:06:46;7.00;99.90
60868;DHT22;46702;48.370;10.794;2023-01-01T02:09:12;7.10;99.90
60868;DHT22;46702;48.370;10.794;2023-01-01T02:11:38;7.00;99.90
60868;DHT22;46702;48.370;10.794;2023-01-01T02:14:03;7.00;99.90
60868;DHT22;46702;48.370;10.794;2023-01-01T02:16:43;7.10;99.90
60868;DHT22;46702;48.370;10.794;2023-01-01T02:19:28;7.10;99.90
60868;DHT22;46702;48.370;10.794;2023-01-01T02:22:14;7.10;99.90
60868;DHT22;46702;48.370;10.794;2023-01-01T02:27:47;7.00;99.90
60868;DHT22;46702;48.370;10.794;2023-01-01T02:30:13;6.90;99.90
60868;DHT22;46702;48.370;10.794;2023-01-01T02:32:50;6.90;99.90
60868;DHT22;46702;48.370;10.794;2023-01-01T02:35:23;6.80;99.90
60868;DHT22;46702;48.370;10.794;2023-01-01T02:38:20;6.80;99.90
60868;DHT22;46702;48.370;10.794;2023-01-01T02:40:55;6.80;99.90
60868;DHT22;46702;48.370;10.794;2023-01-01T02:43:22;6.70;99.90
60868;DHT22;46702;48.370;10.794;2023-01-01T02:45:48;6.60;99.90
60868;DHT22;46702;48.370;10.794;2023-01-01T02:48:36;6.70;99.90
60868;DHT22;46702;48.370;10.794;2023-01-01T02:51:37;6.70;99.90
60868;DHT22;46702;48.370;10.794;2023-01-01T02:56:57;6.80;99.90
60868;DHT22;46702;48.370;10.794;2023-01-01T03:05:33;6.60;99.90
60868;DHT22;46702;48.370;10.794;2023-01-01T03:08:30;6.50;99.90
60868;DHT22;46702;48.370;10.794;2023-01-01T03:11:06;6.40;99.90
60868;DHT22;46702;48.370;10.794;2023-01-01T03:16:13;6.50;99.90
60868;DHT22;46702;48.370;10.794;2023-01-01T03:21:15;6.50;99.90
60868;DHT22;46702;48.370;10.794;2023-01-01T03:23:47;6.40;99.90
60868;DHT22;46702;48.370;10.794;2023-01-01T03:26:16;6.50;99.90
60868;DHT22;46702;48.370;10.794;2023-01-01T03:28:45;6.50;99.90
60868;DHT22;46702;48.370;10.794;2023-01-01T03:31:14;6.50;99.90
60868;DHT22;46702;48.370;10.794;2023-01-01T03:33:45;6.50;99.90
60868;DHT22;46702;48.370;10.794;2023-01-01T03:36:21;6.50;99.90
60868;DHT22;46702;48.370;10.794;2023-01-01T03:41:33;6.50;99.90
60868;DHT22;46702;48.370;10.794;2023-01-01T03:44:11;6.40;99.90
60868;DHT22;46702;48.370;10.794;2023-01-01T03:46:37;6.40;99.90
60868;DHT22;46702;48.370;10.794;2023-01-01T03:49:05;6.40;99.90
60868;DHT22;46702;48.370;10.794;2023-01-01T04:00:36;5.90;99.90
60868;DHT22;46702;48.370;10.794;2023-01-01T04:03:10;5.70;99.90
60868;DHT22;46702;48.370;10.794;2023-01-01T04:05:40;5.50;99.90
60868;DHT22;46702;48.370;10.794;2023-01-01T04:08:07;5.40;99.90
60868;DHT22;46702;48.370;10.794;2023-01-01T04:10:37;5.30;99.90
60868;DHT22;46702;48.370;10.794;2023-01-01T04:13:05;5.30;99.90
60868;DHT22;46702;48.370;10.794;2023-01-01T04:15:32;5.40;99.90
60868;DHT22;46702;48.370;10.794;2023-01-01T04:17:58;5.40;99.90
60868;DHT22;46702;48.370;10.794;2023-01-01T04:20:24;5.50;99.90
60868;DHT22;46702;48.370;10.794;2023-01-01T04:22:50;5.60;99.90
60868;DHT22;46702;48.370;10.794;2023-01-01T04:25:16;5.60;99.90
60868;DHT22;46702;48.370;10.794;2023-01-01T04:27:42;5.60;99.90
60868;DHT22;46702;48.370;10.794;2023-01-01T04:30:10;5.60;99.90
60868;DHT22;46702;48.370;10.794;2023-01-01T04:32:37;5.50;99.90
60868;DHT22;46702;48.370;10.794;2023-01-01T04:35:03;5.40;99.90
60868;DHT22;46702;48.370;10.794;2023-01-01T04:37:29;5.30;99.90
60868;DHT22;46702;48.370;10.794;2023-01-01T04:39:54;5.30;99.90
60868;DHT22;46702;48.370;10.794;2023-01-01T04:42:22;5.40;99.90
60868;DHT22;46702;48.370;10.794;2023-01-01T04:44:48;5.40;99.90
60868;DHT22;46702;48.370;10.794;2023-01-01T04:47:13;5.40;99.90
60868;DHT22;46702;48.370;10.794;2023-01-01T04:49:39;5.50;99.90
60868;DHT22;46702;48.370;10.794;2023-01-01T04:52:05;5.60;99.90
60868;DHT22;46702;48.370;10.794;2023-01-01T04:54:31;5.60;99.90
60868;DHT22;46702;48.370;10.794;2023-01-01T04:56:56;5.60;99.90
60868;DHT22;46702;48.370;10.794;2023-01-01T04:59:22;5.70;99.90
60868;DHT22;46702;48.370;10.794;2023-01-01T05:01:47;5.70;99.90
60868;DHT22;46702;48.370;10.794;2023-01-01T05:04:15;5.70;99.90
60868;DHT22;46702;48.370;10.794;2023-01-01T05:06:41;5.80;99.90
60868;DHT22;46702;48.370;10.794;2023-01-01T05:09:08;5.70;99.90
60868;DHT22;46702;48.370;10.794;2023-01-01T05:11:34;5.70;99.90
60868;DHT22;46702;48.370;10.794;2023-01-01T05:14:00;5.70;99.90
60868;DHT22;46702;48.370;10.794;2023-01-01T05:16:28;5.70;99.90
60868;DHT22;46702;48.370;10.794;2023-01-01T05:18:55;5.60;99.90
60868;DHT22;46702;48.370;10.794;2023-01-01T05:21:26;5.50;99.90
60868;DHT22;46702;48.370;10.794;2023-01-01T05:23:54;5.50;99.90
60868;DHT22;46702;48.370;10.794;2023-01-01T05:26:22;5.50;99.90
60868;DHT22;46702;48.370;10.794;2023-01-01T05:28:48;5.60;99.90
60868;DHT22;46702;48.370;10.794;2023-01-01T05:31:20;5.60;99.90
60868;DHT22;46702;48.370;10.794;2023-01-01T05:33:46;5.60;99.90
60868;DHT22;46702;48.370;10.794;2023-01-01T05:36:17;5.70;99.90
60868;DHT22;46702;48.370;10.794;2023-01-01T05:38:44;5.70;99.90
60868;DHT22;46702;48.370;10.794;2023-01-01T05:41:12;5.70;99.90
60868;DHT22;46702;48.370;10.794;2023-01-01T05:43:38;5.70;99.90
60868;DHT22;46702;48.370;10.794;2023-01-01T05:46:06;5.80;99.90
60868;DHT22;46702;48.370;10.794;2023-01-01T05:48:32;5.80;99.90
60868;DHT22;46702;48.370;10.794;2023-01-01T05:51:03;5.80;99.90
60868;DHT22;46702;48.370;10.794;2023-01-01T05:53:29;5.90;99.90
60868;DHT22;46702;48.370;10.794;2023-01-01T05:55:56;5.80;99.90
60868;DHT22;46702;48.370;10.794;2023-01-01T05:58:22;5.80;99.90
60868;DHT22;46702;48.370;10.794;2023-01-01T06:00:47;5.80;99.90
60868;DHT22;46702;48.370;10.794;2023-01-01T06:03:13;5.70;99.90
60868;DHT22;46702;48.370;10.794;2023-01-01T06:05:39;5.70;99.90
60868;DHT22;46702;48.370;10.794;2023-01-01T06:08:04;5.60;99.90
60868;DHT22;46702;48.370;10.794;2023-01-01T06:10:30;5.60;99.90
60868;DHT22;46702;48.370;10.794;2023-01-01T06:12:55;5.60;99.90
60868;DHT22;46702;48.370;10.794;2023-01-01T06:15:24;5.60;99.90
60868;DHT22;46702;48.370;10.794;2023-01-01T06:17:50;5.80;99.90
60868;DHT22;46702;48.370;10.794;2023-01-01T06:20:16;5.80;99.90
60868;DHT22;46702;48.370;10.794;2023-01-01T06:22:41;5.80;99.90
60868;DHT22;46702;48.370;10.794;2023-01-01T06:25:08;5.90;99.90
60868;DHT22;46702;48.370;10.794;2023-01-01T06:27:35;5.90;99.90
60868;DHT22;46702;48.370;10.794;2023-01-01T06:30:02;5.90;99.90
60868;DHT22;46702;48.370;10.794;2023-01-01T06:32:27;6.00;99.90
60868;DHT22;46702;48.370;10.794;2023-01-01T06:34:53;6.00;99.90
60868;DHT22;46702;48.370;10.794;2023-01-01T06:37:18;6.00;99.90
60868;DHT22;46702;48.370;10.794;2023-01-01T06:39:44;6.00;99.90
60868;DHT22;46702;48.370;10.794;2023-01-01T06:42:10;6.00;99.90
60868;DHT22;46702;48.370;10.794;2023-01-01T06:44:36;5.90;99.90
60868;DHT22;46702;48.370;10.794;2023-01-01T06:47:01;5.90;99.90
60868;DHT22;46702;48.370;10.794;2023-01-01T06:49:27;5.90;99.90
60868;DHT22;46702;48.370;10.794;2023-01-01T06:51:53;6.00;99.90
60868;DHT22;46702;48.370;10.794;2023-01-01T06:54:18;6.00;99.90
60868;DHT22;46702;48.370;10.794;2023-01-01T06:56:44;6.00;99.90
60868;DHT22;46702;48.370;10.794;2023-01-01T06:59:10;6.00;99.90
60868;DHT22;46702;48.370;10.794;2023-01-01T07:01:36;6.00;99.90
60868;DHT22;46702;48.370;10.794;2023-01-01T07:04:05;6.10;99.90
60868;DHT22;46702;48.370;10.794;2023-01-01T07:06:32;6.10;99.90
60868;DHT22;46702;48.370;10.794;2023-01-01T07:08:58;6.00;99.90
60868;DHT22;46702;48.370;10.794;2023-01-01T07:11:24;5.90;99.90
60868;DHT22;46702;48.370;10.794;2023-01-01T07:13:50;5.80;99.90
60868;DHT22;46702;48.370;10.794;2023-01-01T07:16:16;5.90;99.90
60868;DHT22;46702;48.370;10.794;2023-01-01T07:18:42;6.00;99.90
60868;DHT22;46702;48.370;10.794;2023-01-01T07:23:54;6.10;99.90
60868;DHT22;46702;48.370;10.794;2023-01-01T07:26:22;6.10;99.90
60868;DHT22;46702;48.370;10.794;2023-01-01T07:28:48;5.90;99.90
60868;DHT22;46702;48.370;10.794;2023-01-01T07:31:14;5.90;99.90
60868;DHT22;46702;48.370;10.794;2023-01-01T07:33:39;5.80;99.90
60868;DHT22;46702;48.370;10.794;2023-01-01T07:36:05;5.90;99.90
60868;DHT22;46702;48.370;10.794;2023-01-01T07:38:31;5.80;99.90
60868;DHT22;46702;48.370;10.794;2023-01-01T07:40:56;5.90;99.90
60868;DHT22;46702;48.370;10.794;2023-01-01T07:43:22;5.90;99.90
60868;DHT22;46702;48.370;10.794;2023-01-01T07:45:47;6.00;99.90
60868;DHT22;46702;48.370;10.794;2023-01-01T07:48:14;6.00;99.90
60868;DHT22;46702;48.370;10.794;2023-01-01T07:50:40;5.80;99.90
60868;DHT22;46702;48.370;10.794;2023-01-01T07:53:06;5.80;99.90
60868;DHT22;46702;48.370;10.794;2023-01-01T07:55:32;5.80;99.90
60868;DHT22;46702;48.370;10.794;2023-01-01T07:58:01;5.90;99.90
60868;DHT22;46702;48.370;10.794;2023-01-01T08:00:27;6.00;99.90
60868;DHT22;46702;48.370;10.794;2023-01-01T08:02:52;6.00;99.90
60868;DHT22;46702;48.370;10.794;2023-01-01T08:05:18;5.90;99.90
60868;DHT22;46702;48.370;10.794;2023-01-01T08:07:48;5.80;99.90
60868;DHT22;46702;48.370;10.794;2023-01-01T08:10:15;5.90;99.90
60868;DHT22;46702;48.370;10.794;2023-01-01T08:12:41;6.00;99.90
60868;DHT22;46702;48.370;10.794;2023-01-01T08:15:07;6.00;99.90
60868;DHT22;46702;48.370;10.794;2023-01-01T08:17:33;6.00;99.90
60868;DHT22;46702;48.370;10.794;2023-01-01T08:19:59;5.90;99.90
60868;DHT22;46702;48.370;10.794;2023-01-01T08:22:24;5.90;99.90
60868;DHT22;46702;48.370;10.794;2023-01-01T08:24:50;5.90;99.90
60868;DHT22;46702;48.370;10.794;2023-01-01T08:27:16;6.00;99.90
60868;DHT22;46702;48.370;10.794;2023-01-01T08:29:42;6.00;99.90
60868;DHT22;46702;48.370;10.794;2023-01-01T08:32:08;6.10;99.90
60868;DHT22;46702;48.370;10.794;2023-01-01T08:34:34;6.10;99.90
60868;DHT22;46702;48.370;10.794;2023-01-01T08:36:59;6.20;99.90
60868;DHT22;46702;48.370;10.794;2023-01-01T08:39:25;6.30;99.90
60868;DHT22;46702;48.370;10.794;2023-01-01T08:41:50;6.50;99.90
60868;DHT22;46702;48.370;10.794;2023-01-01T08:44:16;6.70;99.90
60868;DHT22;46702;48.370;10.794;2023-01-01T08:46:42;6.80;99.90
60868;DHT22;46702;48.370;10.794;2023-01-01T08:49:07;6.90;99.90
60868;DHT22;46702;48.370;10.794;2023-01-01T08:51:33;6.90;99.90
60868;DHT22;46702;48.370;10.794;2023-01-01T08:53:58;7.00;99.90
60868;DHT22;46702;48.370;10.794;2023-01-01T08:56:24;7.10;99.90
60868;DHT22;46702;48.370;10.794;2023-01-01T08:58:50;7.20;99.90
60868;DHT22;46702;48.370;10.794;2023-01-01T09:01:16;7.40;99.90
60868;DHT22;46702;48.370;10.794;2023-01-01T09:03:41;7.50;99.90
60868;DHT22;46702;48.370;10.794;2023-01-01T09:06:07;7.70;99.90
60868;DHT22;46702;48.370;10.794;2023-01-01T09:08:32;7.80;99.90
60868;DHT22;46702;48.370;10.794;2023-01-01T09:11:02;7.80;99.90
60868;DHT22;46702;48.370;10.794;2023-01-01T09:13:28;8.00;99.90
60868;DHT22;46702;48.370;10.794;2023-01-01T09:15:53;8.20;99.90
60868;DHT22;46702;48.370;10.794;2023-01-01T09:18:19;8.30;99.90
60868;DHT22;46702;48.370;10.794;2023-01-01T09:20:45;8.60;99.90
60868;DHT22;46702;48.370;10.794;2023-01-01T09:23:11;8.70;99.90
60868;DHT22;46702;48.370;10.794;2023-01-01T09:25:37;8.70;99.90
60868;DHT22;46702;48.370;10.794;2023-01-01T09:28:05;8.90;99.90
60868;DHT22;46702;48.370;10.794;2023-01-01T09:30:31;9.10;99.90
60868;DHT22;46702;48.370;10.794;2023-01-01T09:32:57;9.20;99.90
60868;DHT22;46702;48.370;10.794;2023-01-01T09:35:23;9.40;99.90
60868;DHT22;46702;48.370;10.794;2023-01-01T09:37:48;9.80;99.90
60868;DHT22;46702;48.370;10.794;2023-01-01T09:40:35;10.00;99.90
60868;DHT22;46702;48.370;10.794;2023-01-01T09:48:28;10.80;99.90
60868;DHT22;46702;48.370;10.794;2023-01-01T09:50:55;11.10;99.90
60868;DHT22;46702;48.370;10.794;2023-01-01T09:53:30;11.10;99.90
60868;DHT22;46702;48.370;10.794;2023-01-01T09:56:01;11.30;99.90
60868;DHT22;46702;48.370;10.794;2023-01-01T09:58:36;11.60;99.90
60868;DHT22;46702;48.370;10.794;2023-01-01T10:01:31;11.50;99.90
60868;DHT22;46702;48.370;10.794;2023-01-01T10:04:20;11.80;99.90
60868;DHT22;46702;48.370;10.794;2023-01-01T10:15:21;12.70;99.90
60868;DHT22;46702;48.370;10.794;2023-01-01T10:17:50;12.60;99.90
60868;DHT22;46702;48.370;10.794;2023-01-01T10:20:33;12.70;99.90
60868;DHT22;46702;48.370;10.794;2023-01-01T10:23:16;12.70;99.90
60868;DHT22;46702;48.370;10.794;2023-01-01T10:25:44;12.70;99.90
60868;DHT22;46702;48.370;10.794;2023-01-01T10:28:20;12.80;99.90
60868;DHT22;46702;48.370;10.794;2023-01-01T10:30:50;13.00;99.90
60868;DHT22;46702;48.370;10.794;2023-01-01T10:33:17;13.10;99.90
60868;DHT22;46702;48.370;10.794;2023-01-01T10:35:46;13.20;99.90
60868;DHT22;46702;48.370;10.794;2023-01-01T10:38:24;13.20;99.90
60868;DHT22;46702;48.370;10.794;2023-01-01T10:40:52;13.30;99.90
60868;DHT22;46702;48.370;10.794;2023-01-01T10:43:18;13.40;99.90
60868;DHT22;46702;48.370;10.794;2023-01-01T10:45:48;13.30;99.90
60868;DHT22;46702;48.370;10.794;2023-01-01T10:48:20;13.50;99.90
60868;DHT22;46702;48.370;10.794;2023-01-01T10:50:49;13.40;99.90
60868;DHT22;46702;48.370;10.794;2023-01-01T10:53:28;13.50;99.90
60868;DHT22;46702;48.370;10.794;2023-01-01T10:55:58;13.50;99.90
60868;DHT22;46702;48.370;10.794;2023-01-01T11:06:38;13.80;99.90
60868;DHT22;46702;48.370;10.794;2023-01-01T11:09:23;13.80;99.90
60868;DHT22;46702;48.370;10.794;2023-01-01T11:11:59;13.80;99.90
60868;DHT22;46702;48.370;10.794;2023-01-01T11:14:28;13.90;99.90
60868;DHT22;46702;48.370;10.794;2023-01-01T11:16:54;14.00;99.90
60868;DHT22;46702;48.370;10.794;2023-01-01T11:19:32;13.90;99.90
60868;DHT22;46702;48.370;10.794;2023-01-01T11:21:59;14.00;99.90
60868;DHT22;46702;48.370;10.794;2023-01-01T11:24:30;14.10;99.90
60868;DHT22;46702;48.370;10.794;2023-01-01T11:29:40;14.40;99.90
60868;DHT22;46702;48.370;10.794;2023-01-01T11:32:06;14.50;99.90
60868;DHT22;46702;48.370;10.794;2023-01-01T11:34:39;14.80;99.90
60868;DHT22;46702;48.370;10.794;2023-01-01T11:39:43;14.80;99.90
60868;DHT22;46702;48.370;10.794;2023-01-01T11:42:23;14.90;99.90
60868;DHT22;46702;48.370;10.794;2023-01-01T11:45:18;14.90;99.90
60868;DHT22;46702;48.370;10.794;2023-01-01T11:47:48;15.00;99.90
60868;DHT22;46702;48.370;10.794;2023-01-01T11:50:35;15.20;99.90
60868;DHT22;46702;48.370;10.794;2023-01-01T11:58:39;15.10;99.90
60868;DHT22;46702;48.370;10.794;2023-01-01T12:01:10;15.10;99.10
60868;DHT22;46702;48.370;10.794;2023-01-01T12:04:34;15.20;99.90
60868;DHT22;46702;48.370;10.794;2023-01-01T12:07:02;15.20;99.90
60868;DHT22;46702;48.370;10.794;2023-01-01T12:09:50;15.30;99.90
60868;DHT22;46702;48.370;10.794;2023-01-01T12:15:15;15.40;99.90
60868;DHT22;46702;48.370;10.794;2023-01-01T12:18:02;15.50;98.80
60868;DHT22;46702;48.370;10.794;2023-01-01T12:20:59;15.50;99.90
60868;DHT22;46702;48.370;10.794;2023-01-01T12:23:21;15.50;99.90
60868;DHT22;46702;48.370;10.794;2023-01-01T12:37:24;15.50;98.00
60868;DHT22;46702;48.370;10.794;2023-01-01T12:42:55;15.50;95.40
60868;DHT22;46702;48.370;10.794;2023-01-01T12:45:50;15.50;96.70
60868;DHT22;46702;48.370;10.794;2023-01-01T12:48:41;15.40;98.60
60868;DHT22;46702;48.370;10.794;2023-01-01T12:56:34;15.70;95.40
60868;DHT22;46702;48.370;10.794;2023-01-01T12:59:11;15.60;94.90
60868;DHT22;46702;48.370;10.794;2023-01-01T13:01:39;15.60;96.60
60868;DHT22;46702;48.370;10.794;2023-01-01T13:04:14;15.50;96.00
60868;DHT22;46702;48.370;10.794;2023-01-01T13:09:25;15.70;93.90
60868;DHT22;46702;48.370;10.794;2023-01-01T13:11:57;15.70;95.00
60868;DHT22;46702;48.370;10.794;2023-01-01T13:14:23;15.70;94.30
60868;DHT22;46702;48.370;10.794;2023-01-01T13:16:55;16.00;85.20
60868;DHT22;46702;48.370;10.794;2023-01-01T13:19:35;15.90;86.60
60868;DHT22;46702;48.370;10.794;2023-01-01T13:33:30;15.80;91.30
60868;DHT22;46702;48.370;10.794;2023-01-01T13:39:00;15.80;93.30
60868;DHT22;46702;48.370;10.794;2023-01-01T14:00:23;15.80;94.00
60868;DHT22;46702;48.370;10.794;2023-01-01T14:03:16;15.70;92.30
60868;DHT22;46702;48.370;10.794;2023-01-01T14:05:53;15.80;92.30
60868;DHT22;46702;48.370;10.794;2023-01-01T14:08:30;15.70;92.00
60868;DHT22;46702;48.370;10.794;2023-01-01T14:10:57;15.60;93.00
60868;DHT22;46702;48.370;10.794;2023-01-01T14:13:25;15.70;92.70
60868;DHT22;46702;48.370;10.794;2023-01-01T14:16:02;15.70;91.90
60868;DHT22;46702;48.370;10.794;2023-01-01T14:18:38;15.70;92.10
60868;DHT22;46702;48.370;10.794;2023-01-01T14:21:19;15.90;90.90
60868;DHT22;46702;48.370;10.794;2023-01-01T14:23:49;15.90;90.10
60868;DHT22;46702;48.370;10.794;2023-01-01T14:26:18;15.90;90.70
60868;DHT22;46702;48.370;10.794;2023-01-01T14:28:44;15.80;90.90
60868;DHT22;46702;48.370;10.794;2023-01-01T14:31:16;15.80;90.70
60868;DHT22;46702;48.370;10.794;2023-01-01T14:33:42;15.80;91.10
60868;DHT22;46702;48.370;10.794;2023-01-01T14:36:34;15.70;90.60
60868;DHT22;46702;48.370;10.794;2023-01-01T14:39:00;15.60;90.70
60868;DHT22;46702;48.370;10.794;2023-01-01T14:41:40;15.60;91.90
60868;DHT22;46702;48.370;10.794;2023-01-01T14:44:13;15.50;94.30
60868;DHT22;46702;48.370;10.794;2023-01-01T14:46:42;15.30;95.50
60868;DHT22;46702;48.370;10.794;2023-01-01T14:49:12;15.30;96.40
60868;DHT22;46702;48.370;10.794;2023-01-01T14:51:44;15.10;96.20
60868;DHT22;46702;48.370;10.794;2023-01-01T14:54:16;14.90;95.60
60868;DHT22;46702;48.370;10.794;2023-01-01T14:56:49;14.80;96.20
60868;DHT22;46702;48.370;10.794;2023-01-01T14:59:27;14.80;96.60
60868;DHT22;46702;48.370;10.794;2023-01-01T15:02:36;14.70;98.10
60868;DHT22;46702;48.370;10.794;2023-01-01T15:07:58;14.20;99.90
60868;DHT22;46702;48.370;10.794;2023-01-01T15:10:26;14.00;99.90
60868;DHT22;46702;48.370;10.794;2023-01-01T15:12:52;13.90;99.90
60868;DHT22;46702;48.370;10.794;2023-01-01T15:15:41;13.90;99.90
60868;DHT22;46702;48.370;10.794;2023-01-01T15:18:33;13.80;99.90
60868;DHT22;46702;48.370;10.794;2023-01-01T15:21:00;13.90;99.90
60868;DHT22;46702;48.370;10.794;2023-01-01T15:23:25;13.90;99.90
60868;DHT22;46702;48.370;10.794;2023-01-01T15:25:51;13.80;99.90
60868;DHT22;46702;48.370;10.794;2023-01-01T15:28:20;13.80;99.90
60868;DHT22;46702;48.370;10.794;2023-01-01T15:30:52;13.80;99.90
60868;DHT22;46702;48.370;10.794;2023-01-01T15:33:19;13.60;99.90
60868;DHT22;46702;48.370;10.794;2023-01-01T15:35:47;13.40;99.90
60868;DHT22;46702;48.370;10.794;2023-01-01T15:38:23;13.00;99.90
60868;DHT22;46702;48.370;10.794;2023-01-01T15:40:50;12.70;99.90
60868;DHT22;46702;48.370;10.794;2023-01-01T15:43:24;12.60;99.90
60868;DHT22;46702;48.370;10.794;2023-01-01T15:46:15;12.60;99.90
60868;DHT22;46702;48.370;10.794;2023-01-01T15:48:48;12.60;99.90
60868;DHT22;46702;48.370;10.794;2023-01-01T15:51:20;12.70;99.90
60868;DHT22;46702;48.370;10.794;2023-01-01T15:53:53;12.70;99.90
60868;DHT22;46702;48.370;10.794;2023-01-01T15:56:22;12.60;99.90
60868;DHT22;46702;48.370;10.794;2023-01-01T15:58:55;12.60;99.90
60868;DHT22;46702;48.370;10.794;2023-01-01T16:01:26;12.50;99.90
60868;DHT22;46702;48.370;10.794;2023-01-01T16:04:10;12.40;99.90
60868;DHT22;46702;48.370;10.794;2023-01-01T16:06:46;11.90;99.90
60868;DHT22;46702;48.370;10.794;2023-01-01T16:09:13;11.80;99.90
60868;DHT22;46702;48.370;10.794;2023-01-01T16:11:40;11.70;99.90
60868;DHT22;46702;48.370;10.794;2023-01-01T16:14:06;11.60;99.90
60868;DHT22;46702;48.370;10.794;2023-01-01T16:16:33;11.50;99.90
60868;DHT22;46702;48.370;10.794;2023-01-01T16:18:59;11.20;99.90
60868;DHT22;46702;48.370;10.794;2023-01-01T16:21:26;11.20;99.90
60868;DHT22;46702;48.370;10.794;2023-01-01T16:23:53;11.20;99.90
60868;DHT22;46702;48.370;10.794;2023-01-01T16:26:19;11.10;99.90
60868;DHT22;46702;48.370;10.794;2023-01-01T16:28:45;10.80;99.90
60868;DHT22;46702;48.370;10.794;2023-01-01T16:31:13;10.60;99.90
60868;DHT22;46702;48.370;10.794;2023-01-01T16:33:40;10.60;99.90
60868;DHT22;46702;48.370;10.794;2023-01-01T16:36:10;10.70;99.90
60868;DHT22;46702;48.370;10.794;2023-01-01T16:38:36;10.70;99.90
60868;DHT22;46702;48.370;10.794;2023-01-01T16:41:04;10.80;99.90
60868;DHT22;46702;48.370;10.794;2023-01-01T16:43:30;10.60;99.90
60868;DHT22;46702;48.370;10.794;2023-01-01T16:45:56;10.30;99.90
60868;DHT22;46702;48.370;10.794;2023-01-01T16:48:21;10.20;99.90
60868;DHT22;46702;48.370;10.794;2023-01-01T16:50:50;10.10;99.90
60868;DHT22;46702;48.370;10.794;2023-01-01T16:53:16;10.10;99.90
60868;DHT22;46702;48.370;10.794;2023-01-01T16:55:42;10.10;99.90
60868;DHT22;46702;48.370;10.794;2023-01-01T16:58:07;9.90;99.90
60868;DHT22;46702;48.370;10.794;2023-01-01T17:00:33;9.80;99.90
60868;DHT22;46702;48.370;10.794;2023-01-01T17:02:59;9.70;99.90
60868;DHT22;46702;48.370;10.794;2023-01-01T17:05:24;9.70;99.90
60868;DHT22;46702;48.370;10.794;2023-01-01T17:07:51;9.60;99.90
60868;DHT22;46702;48.370;10.794;2023-01-01T17:10:16;9.70;99.90
60868;DHT22;46702;48.370;10.794;2023-01-01T17:12:42;9.70;99.90
60868;DHT22;46702;48.370;10.794;2023-01-01T17:15:08;9.70;99.90
60868;DHT22;46702;48.370;10.794;2023-01-01T17:17:33;9.40;99.90
60868;DHT22;46702;48.370;10.794;2023-01-01T17:19:59;9.40;99.90
60868;DHT22;46702;48.370;10.794;2023-01-01T17:22:24;9.30;99.90
60868;DHT22;46702;48.370;10.794;2023-01-01T17:24:50;9.30;99.90
60868;DHT22;46702;48.370;10.794;2023-01-01T17:27:16;9.30;99.90
60868;DHT22;46702;48.370;10.794;2023-01-01T17:29:41;9.10;99.90
60868;DHT22;46702;48.370;10.794;2023-01-01T17:32:07;8.80;99.90
60868;DHT22;46702;48.370;10.794;2023-01-01T17:34:32;8.60;99.90
60868;DHT22;46702;48.370;10.794;2023-01-01T17:36:58;8.60;99.90
60868;DHT22;46702;48.370;10.794;2023-01-01T17:39:23;8.70;99.90
60868;DHT22;46702;48.370;10.794;2023-01-01T17:41:49;8.30;99.90
60868;DHT22;46702;48.370;10.794;2023-01-01T17:44:15;8.30;99.90
60868;DHT22;46702;48.370;10.794;2023-01-01T17:46:40;8.40;99.90
60868;DHT22;46702;48.370;10.794;2023-01-01T17:49:08;8.60;99.90